Roseto, Pennsylvania
Current Conditions -  °F | °C
As of 4:51 PM on Thursday 18 Dec 2014 (Local Time) from KABE Reporting Station
Overcast Overcast  
Wind Chill:   Ceiling: 3400
Heat Index:   Visibility: 10mi
Dew Point: -4°   Wind: 5mph
Humidity: 62%   Direction: 290°WNW
Pressure: 30.01"   Gusts: NA
Location:  40.8463°N, 75.1731°W
Report Text: KABE 182151Z 29004KT 10SM OVC034 02/M04 A3001 RMK AO2 SLP165 T00221044
Loading
Personal Weather Stations






























Interactive Weather Map New forecast layout! Learn more

10-Day Weather Forecast

Advertisements
Track Severe Weather on mobile